Time;durP1;ratioP1;P1;durP2;ratioP2;P2;SDS_P1;SDS_P2;PMS_P1;PMS_P2;Temp;Humidity;BMP_temperature;BMP_pressure;BME280_temperature;BME280_humidity;BME280_pressure;Samples;Min_cycle;Max_cycle;Signal;HPM_P1;HPM_P2
2023/10/03 00:01:21;;;;;;;;;6.33;6.33;;;;;;;;5141986;27;9670;-76
2023/10/03 00:03:48;;;;;;;;;8.00;6.00;;;;;;;;5137258;27;9114;-77
2023/10/03 00:06:14;;;;;;;;;8.00;7.00;;;;;;;;5123263;27;8799;-76
2023/10/03 00:08:39;;;;;;;;;7.67;6.33;;;;;;;;5120980;28;9421;-76
2023/10/03 00:11:04;;;;;;;;;8.00;6.67;;;;;;;;5122532;27;9785;-77
2023/10/03 00:13:31;;;;;;;;;6.33;6.33;;;;;;;;5123395;27;8937;-76
2023/10/03 00:15:56;;;;;;;;;5.33;5.33;;;;;;;;5121956;27;8771;-76
2023/10/03 00:18:21;;;;;;;;;11.33;8.67;;;;;;;;5122595;27;9350;-77
2023/10/03 00:20:47;;;;;;;;;8.33;6.00;;;;;;;;5123136;27;8806;-76
2023/10/03 00:23:12;;;;;;;;;5.33;5.00;;;;;;;;5123432;27;8960;-77
2023/10/03 00:25:38;;;;;;;;;7.00;6.00;;;;;;;;5122579;27;8868;-76
2023/10/03 00:28:06;;;;;;;;;6.00;5.00;;;;;;;;5141975;27;8888;-77
2023/10/03 00:30:31;;;;;;;;;5.67;5.00;;;;;;;;5144367;27;8865;-76
2023/10/03 00:32:57;;;;;;;;;6.00;6.00;;;;;;;;5143869;27;9402;-77
2023/10/03 00:35:24;;;;;;;;;10.00;8.00;;;;;;;;5124156;27;8791;-76
2023/10/03 00:37:53;;;;;;;;;8.33;5.33;;;;;;;;5117096;27;9321;-76
2023/10/03 00:42:49;;;;;;;;;7.33;6.33;;;;;;;;5124157;27;9280;-77
2023/10/03 00:45:19;;;;;;;;;9.33;5.67;;;;;;;;5129937;27;9346;-76
2023/10/03 00:47:45;;;;;;;;;10.67;6.67;;;;;;;;5123245;28;11305;-77
2023/10/03 00:50:11;;;;;;;;;5.00;4.00;;;;;;;;5122742;27;9455;-76
2023/10/03 00:52:37;;;;;;;;;11.00;6.00;;;;;;;;5123403;27;9520;-76
2023/10/03 00:55:03;;;;;;;;;7.00;6.67;;;;;;;;5122710;27;8753;-76
2023/10/03 00:57:29;;;;;;;;;7.00;7.00;;;;;;;;5122094;28;9278;-77
2023/10/03 00:59:57;;;;;;;;;7.67;6.67;;;;;;;;5123420;27;9627;-76
2023/10/03 01:02:23;;;;;;;;;7.33;6.00;;;;;;;;5110285;28;8746;-77
2023/10/03 01:04:49;;;;;;;;;7.00;7.00;;;;;;;;5142306;27;9121;-77
2023/10/03 01:07:14;;;;;;;;;10.00;7.33;;;;;;;;5143521;27;8808;-76
2023/10/03 01:09:39;;;;;;;;;8.67;5.33;;;;;;;;5143830;27;9696;-76
2023/10/03 01:12:05;;;;;;;;;5.00;5.00;;;;;;;;5143459;27;8776;-77
2023/10/03 01:14:35;;;;;;;;;10.67;7.00;;;;;;;;5142352;27;8745;-77
2023/10/03 01:17:02;;;;;;;;;9.00;7.33;;;;;;;;5143475;27;9488;-76
2023/10/03 01:19:30;;;;;;;;;12.00;10.00;;;;;;;;5124753;27;9615;-76
2023/10/03 01:21:56;;;;;;;;;7.67;7.67;;;;;;;;5121686;28;9520;-76
2023/10/03 01:24:24;;;;;;;;;13.33;8.33;;;;;;;;5122306;27;9466;-76
2023/10/03 01:26:53;;;;;;;;;11.67;9.67;;;;;;;;5121455;28;9401;-77
2023/10/03 01:29:21;;;;;;;;;8.67;8.00;;;;;;;;5122406;27;9708;-77
2023/10/03 01:31:51;;;;;;;;;10.50;8.25;;;;;;;;5122653;27;9502;-76
2023/10/03 01:34:16;;;;;;;;;13.50;11.50;;;;;;;;5121068;28;9539;-76
2023/10/03 01:36:42;;;;;;;;;9.50;8.25;;;;;;;;5122730;27;9652;-77
2023/10/03 01:39:11;;;;;;;;;8.00;6.33;;;;;;;;5122824;28;8787;-77
2023/10/03 01:41:37;;;;;;;;;12.00;9.25;;;;;;;;5122534;27;9409;-77
2023/10/03 01:44:02;;;;;;;;;10.50;9.00;;;;;;;;5123786;27;9654;-76
2023/10/03 01:46:27;;;;;;;;;12.25;8.25;;;;;;;;5125201;27;8892;-76
2023/10/03 01:48:53;;;;;;;;;13.25;11.50;;;;;;;;5126078;27;8803;-77
2023/10/03 01:51:18;;;;;;;;;11.33;9.33;;;;;;;;5142780;27;8899;-76
2023/10/03 01:53:45;;;;;;;;;11.00;9.33;;;;;;;;5127907;27;8844;-77
2023/10/03 01:56:10;;;;;;;;;10.50;10.00;;;;;;;;5125617;27;9060;-77
2023/10/03 01:58:35;;;;;;;;;10.25;10.25;;;;;;;;5125829;27;9705;-77
2023/10/03 02:01:01;;;;;;;;;11.75;10.00;;;;;;;;5125309;27;9538;-76
2023/10/03 02:03:28;;;;;;;;;10.25;9.25;;;;;;;;5105531;27;8894;-76
2023/10/03 02:05:54;;;;;;;;;12.00;9.50;;;;;;;;5105076;28;8754;-77
2023/10/03 02:08:20;;;;;;;;;12.25;9.50;;;;;;;;5104305;28;10588;-76
2023/10/03 02:10:46;;;;;;;;;11.75;9.25;;;;;;;;5117707;27;8921;-77
2023/10/03 02:13:14;;;;;;;;;12.00;12.00;;;;;;;;5131247;27;9700;-76
2023/10/03 02:15:40;;;;;;;;;13.75;11.75;;;;;;;;5144547;27;9640;-76
2023/10/03 02:18:05;;;;;;;;;11.50;9.25;;;;;;;;5144502;27;9841;-77
2023/10/03 02:20:38;;;;;;;;;11.75;11.75;;;;;;;;5136758;27;8819;-76
2023/10/03 02:23:05;;;;;;;;;11.75;9.75;;;;;;;;5124971;27;8775;-76
2023/10/03 02:25:36;;;;;;;;;8.00;8.00;;;;;;;;5122463;27;9728;-76
2023/10/03 02:28:02;;;;;;;;;12.50;11.00;;;;;;;;5124102;28;10159;-76
2023/10/03 02:30:27;;;;;;;;;14.50;10.75;;;;;;;;5123282;28;9724;-77
2023/10/03 02:32:53;;;;;;;;;15.50;10.50;;;;;;;;5125203;27;8834;-76
2023/10/03 02:35:21;;;;;;;;;14.00;12.50;;;;;;;;5125432;27;8780;-76
2023/10/03 02:37:47;;;;;;;;;10.50;10.50;;;;;;;;5125329;27;9876;-76
2023/10/03 02:40:14;;;;;;;;;14.50;12.00;;;;;;;;5121697;27;9738;-77
2023/10/03 02:42:40;;;;;;;;;11.25;11.25;;;;;;;;5138339;27;9671;-76
2023/10/03 02:45:06;;;;;;;;;19.50;13.75;;;;;;;;5124753;27;9701;-76
2023/10/03 02:47:31;;;;;;;;;9.25;9.25;;;;;;;;5124917;27;8860;-76
2023/10/03 02:49:58;;;;;;;;;13.00;9.25;;;;;;;;5124427;27;8914;-76
2023/10/03 02:52:24;;;;;;;;;12.50;10.75;;;;;;;;5104804;28;8738;-76
2023/10/03 02:54:49;;;;;;;;;14.00;12.75;;;;;;;;5101959;28;9823;-77
2023/10/03 02:57:15;;;;;;;;;17.50;13.25;;;;;;;;5103822;28;8802;-77
2023/10/03 02:59:44;;;;;;;;;10.00;8.75;;;;;;;;5102668;28;8859;-76
2023/10/03 03:02:11;;;;;;;;;11.50;10.50;;;;;;;;5122945;27;11415;-76
2023/10/03 03:04:36;;;;;;;;;11.00;10.50;;;;;;;;5125028;27;9848;-76
2023/10/03 03:07:04;;;;;;;;;8.25;8.25;;;;;;;;5128657;27;9876;-76
2023/10/03 03:09:35;;;;;;;;;10.25;8.00;;;;;;;;5125082;27;8802;-76
2023/10/03 03:12:01;;;;;;;;;10.25;10.25;;;;;;;;5123402;28;9620;-76
2023/10/03 03:14:26;;;;;;;;;12.75;12.00;;;;;;;;5124430;28;10032;-76
2023/10/03 03:16:52;;;;;;;;;10.75;9.75;;;;;;;;5124115;27;8776;-76
2023/10/03 03:19:17;;;;;;;;;13.00;10.00;;;;;;;;5145710;27;8799;-76
2023/10/03 03:21:44;;;;;;;;;14.00;11.75;;;;;;;;5143950;27;8777;-76
2023/10/03 03:24:10;;;;;;;;;17.50;9.25;;;;;;;;5145673;27;8751;-76
2023/10/03 03:26:36;;;;;;;;;13.50;10.25;;;;;;;;5137910;27;9952;-76
2023/10/03 03:29:05;;;;;;;;;12.25;10.00;;;;;;;;5123989;27;8724;-76
2023/10/03 03:31:34;;;;;;;;;9.50;9.50;;;;;;;;5124503;27;9757;-77
2023/10/03 03:34:02;;;;;;;;;15.50;13.25;;;;;;;;5126393;27;9574;-77
2023/10/03 03:36:29;;;;;;;;;10.75;9.50;;;;;;;;5128006;27;10036;-76
2023/10/03 03:38:55;;;;;;;;;12.75;11.50;;;;;;;;5144666;27;9748;-76
2023/10/03 03:41:20;;;;;;;;;14.75;11.50;;;;;;;;5145324;27;9810;-77
2023/10/03 03:43:48;;;;;;;;;13.67;9.00;;;;;;;;5144524;27;8902;-77
2023/10/03 03:46:13;;;;;;;;;10.33;9.00;;;;;;;;5144836;27;8853;-76
2023/10/03 03:48:38;;;;;;;;;11.00;9.75;;;;;;;;5144791;27;9407;-76
2023/10/03 03:51:09;;;;;;;;;11.00;8.75;;;;;;;;5144742;27;8838;-76
2023/10/03 03:53:35;;;;;;;;;10.00;7.25;;;;;;;;5133343;27;8807;-76
2023/10/03 03:56:00;;;;;;;;;13.50;8.00;;;;;;;;5121736;28;10039;-76
2023/10/03 03:58:26;;;;;;;;;11.75;7.75;;;;;;;;5122217;28;8835;-76
2023/10/03 04:00:51;;;;;;;;;14.50;9.75;;;;;;;;5124163;27;8783;-76
2023/10/03 04:03:18;;;;;;;;;9.25;9.25;;;;;;;;5114549;27;8829;-77
2023/10/03 04:05:45;;;;;;;;;9.75;9.25;;;;;;;;5103748;28;8773;-76
2023/10/03 04:08:10;;;;;;;;;6.33;5.67;;;;;;;;5102664;28;9700;-76
2023/10/03 04:10:37;;;;;;;;;8.75;7.75;;;;;;;;5103546;28;9572;-76
2023/10/03 04:13:10;;;;;;;;;7.25;5.50;;;;;;;;5102913;28;8813;-76
2023/10/03 04:15:37;;;;;;;;;8.50;7.00;;;;;;;;5111431;27;9730;-76
2023/10/03 04:18:03;;;;;;;;;8.33;7.00;;;;;;;;5143919;27;9664;-76
2023/10/03 04:20:33;;;;;;;;;10.75;6.75;;;;;;;;5137980;27;9559;-76
2023/10/03 04:22:58;;;;;;;;;6.00;6.00;;;;;;;;5122521;28;9596;-76
2023/10/03 04:25:24;;;;;;;;;8.00;5.50;;;;;;;;5123041;27;9710;-76
2023/10/03 04:27:53;;;;;;;;;7.25;5.00;;;;;;;;5123242;28;8825;-76
2023/10/03 04:30:25;;;;;;;;;5.00;4.67;;;;;;;;5123421;28;8774;-76
2023/10/03 04:32:50;;;;;;;;;6.33;5.00;;;;;;;;5122125;28;9352;-76
2023/10/03 04:35:18;;;;;;;;;6.00;6.00;;;;;;;;5122893;27;9727;-76
2023/10/03 04:37:44;;;;;;;;;3.75;3.75;;;;;;;;5123785;27;9700;-76
2023/10/03 04:40:15;;;;;;;;;6.25;4.00;;;;;;;;5131979;27;9490;-76
2023/10/03 04:42:41;;;;;;;;;7.00;4.75;;;;;;;;5142110;27;8749;-76
2023/10/03 04:45:08;;;;;;;;;5.75;5.75;;;;;;;;5139047;27;9829;-76
2023/10/03 04:47:34;;;;;;;;;7.33;4.00;;;;;;;;5122913;27;9800;-76
2023/10/03 04:50:00;;;;;;;;;5.25;5.25;;;;;;;;5133420;27;9488;-76
2023/10/03 04:52:27;;;;;;;;;7.25;5.50;;;;;;;;5143661;27;12372;-76
2023/10/03 04:54:52;;;;;;;;;6.75;6.75;;;;;;;;5139648;27;9891;-76
2023/10/03 04:57:18;;;;;;;;;4.50;4.50;;;;;;;;5123099;27;9591;-76
2023/10/03 04:59:43;;;;;;;;;4.75;4.75;;;;;;;;5124209;27;9552;-76
2023/10/03 05:02:11;;;;;;;;;8.00;5.00;;;;;;;;5134226;27;8883;-76
2023/10/03 05:04:36;;;;;;;;;5.50;5.00;;;;;;;;5123554;27;8740;-76
2023/10/03 05:07:01;;;;;;;;;7.00;7.00;;;;;;;;5143067;27;9733;-76
2023/10/03 05:09:30;;;;;;;;;6.67;5.67;;;;;;;;5140111;27;8805;-77
2023/10/03 05:11:55;;;;;;;;;5.00;5.00;;;;;;;;5133114;27;8805;-79
2023/10/03 05:14:21;;;;;;;;;7.67;6.00;;;;;;;;5133340;27;9654;-76
2023/10/03 05:16:50;;;;;;;;;7.33;6.00;;;;;;;;5144483;27;8800;-77
2023/10/03 05:19:15;;;;;;;;;6.00;4.67;;;;;;;;5143747;27;8764;-76
2023/10/03 05:21:40;;;;;;;;;5.00;5.00;;;;;;;;5126666;27;9478;-79
2023/10/03 05:24:10;;;;;;;;;4.25;4.25;;;;;;;;5126328;27;8920;-77
2023/10/03 05:26:37;;;;;;;;;8.00;6.75;;;;;;;;5128671;27;8888;-80
2023/10/03 05:29:02;;;;;;;;;5.75;5.75;;;;;;;;5125565;27;9504;-80
2023/10/03 05:31:28;;;;;;;;;6.75;5.00;;;;;;;;5126003;27;9552;-79
2023/10/03 05:33:53;;;;;;;;;5.00;5.00;;;;;;;;5117314;27;10304;-74
2023/10/03 05:36:19;;;;;;;;;5.50;5.50;;;;;;;;5137324;27;9582;-79
2023/10/03 05:38:44;;;;;;;;;4.75;3.75;;;;;;;;5126410;27;8825;-81
2023/10/03 05:41:23;;;;;;;;;5.50;4.00;;;;;;;;5130655;27;8937;-79
2023/10/03 05:43:52;;;;;;;;;3.00;3.00;;;;;;;;5123864;28;10004;-80
2023/10/03 05:46:20;;;;;;;;;3.33;3.00;;;;;;;;5127366;27;9611;-80
2023/10/03 05:48:46;;;;;;;;;5.75;5.25;;;;;;;;5123289;27;9324;-79
2023/10/03 05:51:12;;;;;;;;;4.33;4.33;;;;;;;;5125776;27;9696;-81
2023/10/03 05:53:40;;;;;;;;;5.50;3.00;;;;;;;;5124519;27;8799;-80
2023/10/03 05:56:06;;;;;;;;;3.50;3.50;;;;;;;;5122104;28;8791;-79
2023/10/03 05:58:32;;;;;;;;;3.75;3.75;;;;;;;;5125579;27;9509;-81
2023/10/03 06:00:58;;;;;;;;;4.00;4.00;;;;;;;;5125951;27;8747;-80
2023/10/03 06:03:23;;;;;;;;;4.67;4.67;;;;;;;;5124948;27;9651;-80
2023/10/03 06:05:50;;;;;;;;;6.00;4.00;;;;;;;;5125278;27;8815;-80
2023/10/03 06:08:15;;;;;;;;;3.75;3.75;;;;;;;;5126744;27;8767;-80
2023/10/03 06:10:41;;;;;;;;;5.50;5.00;;;;;;;;5123847;28;9934;-80
2023/10/03 06:13:09;;;;;;;;;4.33;3.00;;;;;;;;5123904;27;8835;-79
2023/10/03 06:15:36;;;;;;;;;4.75;4.75;;;;;;;;5136491;27;8919;-79
2023/10/03 06:18:02;;;;;;;;;4.25;3.25;;;;;;;;5137610;27;9669;-81
2023/10/03 06:20:27;;;;;;;;;5.50;4.00;;;;;;;;5137389;27;9515;-79
2023/10/03 06:22:54;;;;;;;;;4.00;4.00;;;;;;;;5134904;27;8789;-79
2023/10/03 06:25:19;;;;;;;;;6.50;3.75;;;;;;;;5140646;27;8797;-80
2023/10/03 06:27:44;;;;;;;;;3.75;3.75;;;;;;;;5142830;27;9527;-79
2023/10/03 06:30:10;;;;;;;;;3.67;2.67;;;;;;;;5129489;27;8845;-80
2023/10/03 06:32:35;;;;;;;;;4.75;3.50;;;;;;;;5123323;27;9983;-77
2023/10/03 06:35:05;;;;;;;;;3.25;1.75;;;;;;;;5123310;27;8851;-78
2023/10/03 06:37:30;;;;;;;;;3.50;3.00;;;;;;;;5126805;27;8780;-80
2023/10/03 06:39:56;;;;;;;;;4.00;2.67;;;;;;;;5127821;27;9832;-78
2023/10/03 06:42:23;;;;;;;;;5.00;3.33;;;;;;;;5132673;27;8815;-77
2023/10/03 06:44:50;;;;;;;;;3.00;3.00;;;;;;;;5127557;27;8942;-77
2023/10/03 06:47:15;;;;;;;;;5.25;5.25;;;;;;;;5122400;27;9776;-77
2023/10/03 06:49:40;;;;;;;;;5.00;4.00;;;;;;;;5123332;28;9646;-78
2023/10/03 06:52:06;;;;;;;;;4.00;3.00;;;;;;;;5123908;27;8936;-80
2023/10/03 06:54:31;;;;;;;;;5.50;3.75;;;;;;;;5136857;27;8842;-80
2023/10/03 06:56:56;;;;;;;;;4.00;3.00;;;;;;;;5130503;27;8807;-79
2023/10/03 06:59:21;;;;;;;;;5.00;5.00;;;;;;;;5144708;27;8826;-79
2023/10/03 07:01:47;;;;;;;;;3.33;2.67;;;;;;;;5132454;27;8784;-77
2023/10/03 07:04:12;;;;;;;;;4.25;3.75;;;;;;;;5137392;27;8815;-77
2023/10/03 07:06:43;;;;;;;;;4.67;3.67;;;;;;;;5122964;27;8854;-77
2023/10/03 07:09:10;;;;;;;;;8.00;5.00;;;;;;;;5131173;27;8776;-77
2023/10/03 07:11:35;;;;;;;;;3.00;3.00;;;;;;;;5143723;27;10069;-77
2023/10/03 07:14:01;;;;;;;;;2.00;2.00;;;;;;;;5144550;27;9581;-77
2023/10/03 07:16:30;;;;;;;;;9.75;6.00;;;;;;;;5144843;27;8777;-77
2023/10/03 07:18:55;;;;;;;;;7.25;5.50;;;;;;;;5132233;27;9682;-77
2023/10/03 07:21:22;;;;;;;;;6.67;6.67;;;;;;;;5144587;27;9737;-77
2023/10/03 07:23:47;;;;;;;;;7.75;6.00;;;;;;;;5131602;27;8808;-77
2023/10/03 07:26:12;;;;;;;;;11.25;7.75;;;;;;;;5129477;27;9565;-80
2023/10/03 07:28:39;;;;;;;;;8.50;7.50;;;;;;;;5144185;27;8908;-77
2023/10/03 07:31:08;;;;;;;;;5.75;4.75;;;;;;;;5130402;27;8745;-77
2023/10/03 07:33:33;;;;;;;;;7.25;7.25;;;;;;;;5132108;27;9534;-76
2023/10/03 07:36:03;;;;;;;;;7.00;6.00;;;;;;;;5110721;27;9882;-77
2023/10/03 07:38:28;;;;;;;;;6.00;6.00;;;;;;;;5134522;27;8781;-76
2023/10/03 07:40:53;;;;;;;;;5.75;5.75;;;;;;;;5138030;27;9949;-73
2023/10/03 07:43:19;;;;;;;;;7.25;7.00;;;;;;;;5123562;27;8854;-73
2023/10/03 07:45:44;;;;;;;;;6.75;6.75;;;;;;;;5124375;28;8783;-73
2023/10/03 07:48:10;;;;;;;;;7.00;5.25;;;;;;;;5123868;27;8825;-74
2023/10/03 07:50:38;;;;;;;;;6.25;5.00;;;;;;;;5142750;27;9413;-73
2023/10/03 07:53:11;;;;;;;;;3.75;3.75;;;;;;;;5144946;27;8792;-74
2023/10/03 07:55:36;;;;;;;;;8.00;8.00;;;;;;;;5140597;27;9683;-74
2023/10/03 07:58:02;;;;;;;;;5.00;5.00;;;;;;;;5129326;27;9929;-74
2023/10/03 08:00:28;;;;;;;;;9.75;6.50;;;;;;;;5123922;27;8828;-73
2023/10/03 08:02:53;;;;;;;;;5.50;5.50;;;;;;;;5121670;27;9801;-74
2023/10/03 08:05:19;;;;;;;;;9.00;5.25;;;;;;;;5137172;27;8792;-74
2023/10/03 08:07:47;;;;;;;;;8.33;7.00;;;;;;;;5129565;27;8779;-73
2023/10/03 08:10:17;;;;;;;;;4.25;4.00;;;;;;;;5136294;27;9644;-73
2023/10/03 08:12:42;;;;;;;;;3.75;3.75;;;;;;;;5123142;27;9722;-74
2023/10/03 08:15:16;;;;;;;;;5.00;5.00;;;;;;;;5124395;27;10680;-74
2023/10/03 08:17:43;;;;;;;;;3.00;3.00;;;;;;;;5123493;27;8945;-74
2023/10/03 08:20:09;;;;;;;;;3.75;2.75;;;;;;;;5122155;28;10016;-73
2023/10/03 08:22:37;;;;;;;;;4.50;3.50;;;;;;;;5134914;27;9732;-74
2023/10/03 08:25:06;;;;;;;;;4.00;4.00;;;;;;;;5133217;27;9820;-74
2023/10/03 08:27:31;;;;;;;;;3.50;2.50;;;;;;;;5138537;27;9890;-74
2023/10/03 08:29:58;;;;;;;;;5.75;3.25;;;;;;;;5124902;27;8845;-74
2023/10/03 08:32:25;;;;;;;;;6.00;4.00;;;;;;;;5129987;27;8788;-74
2023/10/03 08:34:51;;;;;;;;;2.75;2.00;;;;;;;;5128104;27;10101;-74
2023/10/03 08:37:23;;;;;;;;;2.50;2.50;;;;;;;;5130902;27;9911;-74
2023/10/03 08:39:49;;;;;;;;;3.50;3.25;;;;;;;;5122929;27;11261;-74
2023/10/03 08:42:39;;;;;;;;;4.00;4.00;;;;;;;;5123773;27;9800;-74
2023/10/03 08:45:39;;;;;;;;;5.75;5.25;;;;;;;;5133278;27;9969;-74
2023/10/03 08:48:05;;;;;;;;;4.00;4.00;;;;;;;;5129686;27;9875;-74
2023/10/03 08:50:34;;;;;;;;;4.00;3.00;;;;;;;;5127051;27;9669;-75
2023/10/03 08:53:16;;;;;;;;;6.25;6.00;;;;;;;;5122144;27;9813;-74
2023/10/03 08:55:48;;;;;;;;;5.00;4.00;;;;;;;;5127734;27;9926;-74
2023/10/03 08:58:14;;;;;;;;;5.00;4.00;;;;;;;;5143896;27;9798;-74
2023/10/03 09:00:44;;;;;;;;;4.75;3.00;;;;;;;;5139336;27;10056;-74
2023/10/03 09:03:14;;;;;;;;;8.00;3.00;;;;;;;;5133694;27;9899;-74
2023/10/03 09:05:42;;;;;;;;;3.00;3.00;;;;;;;;5132383;27;9891;-74
2023/10/03 09:08:09;;;;;;;;;4.25;3.00;;;;;;;;5127790;27;9843;-74
2023/10/03 09:10:38;;;;;;;;;8.25;3.75;;;;;;;;5133481;27;9913;-74
2023/10/03 09:13:04;;;;;;;;;2.00;2.00;;;;;;;;5131238;27;9836;-74
2023/10/03 09:15:37;;;;;;;;;2.00;2.00;;;;;;;;5133186;27;9790;-75
2023/10/03 09:18:04;;;;;;;;;2.00;1.50;;;;;;;;5128284;27;8921;-74
2023/10/03 09:20:31;;;;;;;;;4.00;2.00;;;;;;;;5137355;27;9869;-74
2023/10/03 09:23:05;;;;;;;;;4.00;1.00;;;;;;;;5143637;27;9825;-74
2023/10/03 09:25:32;;;;;;;;;2.75;1.00;;;;;;;;5143010;27;9750;-74
2023/10/03 09:28:04;;;;;;;;;2.50;1.00;;;;;;;;5143106;27;9526;-74
2023/10/03 09:30:37;;;;;;;;;3.25;1.00;;;;;;;;5142755;27;9697;-74
2023/10/03 09:33:04;;;;;;;;;1.00;1.00;;;;;;;;5141586;27;9496;-74
2023/10/03 09:35:30;;;;;;;;;2.50;2.00;;;;;;;;5118404;27;9294;-74
2023/10/03 09:37:56;;;;;;;;;1.00;1.00;;;;;;;;5127313;27;9747;-74
2023/10/03 09:40:21;;;;;;;;;0.50;0.50;;;;;;;;5126109;27;8765;-74
2023/10/03 09:42:50;;;;;;;;;3.75;1.00;;;;;;;;5143419;27;8796;-74
2023/10/03 09:45:24;;;;;;;;;2.00;1.00;;;;;;;;5129999;27;8795;-74
2023/10/03 09:47:58;;;;;;;;;4.75;1.75;;;;;;;;5127912;27;9615;-74
2023/10/03 09:50:26;;;;;;;;;1.00;1.00;;;;;;;;5132035;27;9859;-74
2023/10/03 09:52:52;;;;;;;;;0.00;0.00;;;;;;;;5135687;27;9492;-74
2023/10/03 09:55:21;;;;;;;;;3.00;1.00;;;;;;;;5138885;27;9642;-74
2023/10/03 09:57:52;;;;;;;;;3.50;2.00;;;;;;;;5139723;27;8810;-74
2023/10/03 10:00:38;;;;;;;;;3.00;2.00;;;;;;;;5139059;27;9792;-74
2023/10/03 10:03:09;;;;;;;;;2.00;2.00;;;;;;;;5123727;27;9451;-74
2023/10/03 10:05:35;;;;;;;;;1.00;1.00;;;;;;;;5123204;28;9705;-74
2023/10/03 10:08:15;;;;;;;;;0.25;0.25;;;;;;;;5125284;27;9488;-77
2023/10/03 10:10:41;;;;;;;;;1.75;1.75;;;;;;;;5125527;27;9723;-73
2023/10/03 10:13:20;;;;;;;;;1.50;1.50;;;;;;;;5125908;27;9625;-74
2023/10/03 10:16:16;;;;;;;;;4.25;2.00;;;;;;;;5124092;28;9519;-74
2023/10/03 10:18:44;;;;;;;;;2.00;1.00;;;;;;;;5124314;27;9560;-73
2023/10/03 10:21:22;;;;;;;;;2.50;0.75;;;;;;;;5125542;27;10494;-74
2023/10/03 10:24:06;;;;;;;;;1.67;1.67;;;;;;;;5125952;27;9370;-74
2023/10/03 10:26:32;;;;;;;;;3.67;2.67;;;;;;;;5124535;27;9389;-74
2023/10/03 10:29:05;;;;;;;;;4.00;2.00;;;;;;;;5125304;27;9326;-74
2023/10/03 10:31:38;;;;;;;;;4.67;1.00;;;;;;;;5136922;27;8741;-74
2023/10/03 10:34:21;;;;;;;;;1.00;0.00;;;;;;;;5140745;27;9438;-75
2023/10/03 10:36:57;;;;;;;;;1.00;1.00;;;;;;;;5110634;27;9184;-75
2023/10/03 10:39:25;;;;;;;;;0.67;0.00;;;;;;;;5123990;27;9284;-76
2023/10/03 10:42:09;;;;;;;;;1.33;0.00;;;;;;;;5120469;27;10233;-74
2023/10/03 10:44:35;;;;;;;;;1.67;1.67;;;;;;;;5120790;28;9224;-74
2023/10/03 10:47:05;;;;;;;;;1.67;1.00;;;;;;;;5129481;27;9427;-72
2023/10/03 10:49:48;;;;;;;;;1.33;1.33;;;;;;;;5130028;27;8762;-73
2023/10/03 10:52:13;;;;;;;;;1.00;1.00;;;;;;;;5138323;27;9506;-72
2023/10/03 10:54:41;;;;;;;;;1.67;0.67;;;;;;;;5127322;27;9303;-74
2023/10/03 10:57:07;;;;;;;;;5.67;2.67;;;;;;;;5129114;27;8912;-74
2023/10/03 10:59:36;;;;;;;;;2.00;2.00;;;;;;;;5125326;27;9487;-75
2023/10/03 11:02:03;;;;;;;;;2.00;2.00;;;;;;;;5131810;27;10456;-73
2023/10/03 11:04:32;;;;;;;;;2.00;1.00;;;;;;;;5126006;27;9426;-74
2023/10/03 11:06:57;;;;;;;;;4.67;1.33;;;;;;;;5123139;27;9160;-74
2023/10/03 11:09:23;;;;;;;;;2.33;1.00;;;;;;;;5145553;27;9314;-73
2023/10/03 11:11:50;;;;;;;;;3.00;1.67;;;;;;;;5136665;27;8783;-76
2023/10/03 11:14:26;;;;;;;;;3.00;0.00;;;;;;;;5123393;28;9724;-75
2023/10/03 11:16:52;;;;;;;;;3.00;2.00;;;;;;;;5134125;27;9299;-75
2023/10/03 11:19:17;;;;;;;;;1.67;0.67;;;;;;;;5145227;27;9335;-76
2023/10/03 11:21:42;;;;;;;;;2.33;1.00;;;;;;;;5144747;27;9556;-75
2023/10/03 11:24:19;;;;;;;;;3.33;3.33;;;;;;;;5143916;27;8812;-75
2023/10/03 11:26:46;;;;;;;;;2.67;1.00;;;;;;;;5123219;27;8934;-74
2023/10/03 11:29:11;;;;;;;;;4.00;1.67;;;;;;;;5136035;27;9516;-74
2023/10/03 11:31:40;;;;;;;;;4.00;2.00;;;;;;;;5129507;27;10404;-74
2023/10/03 11:34:06;;;;;;;;;4.00;3.00;;;;;;;;5122919;27;8877;-74
2023/10/03 11:36:45;;;;;;;;;1.67;1.67;;;;;;;;5129154;27;9324;-74
2023/10/03 11:39:11;;;;;;;;;3.00;2.00;;;;;;;;5124566;27;8803;-75
2023/10/03 11:41:39;;;;;;;;;4.00;3.00;;;;;;;;5125119;27;10273;-75
2023/10/03 11:44:20;;;;;;;;;1.00;1.00;;;;;;;;5145037;27;8910;-73
2023/10/03 11:46:46;;;;;;;;;2.00;2.00;;;;;;;;5143243;27;9028;-74
2023/10/03 11:49:13;;;;;;;;;3.00;3.00;;;;;;;;5143403;27;9199;-74
2023/10/03 11:51:38;;;;;;;;;1.00;1.00;;;;;;;;5124498;27;10484;-72
2023/10/03 11:54:08;;;;;;;;;3.33;3.00;;;;;;;;5123644;27;9186;-73
2023/10/03 11:56:43;;;;;;;;;2.00;2.00;;;;;;;;5127661;27;8745;-71
2023/10/03 11:59:08;;;;;;;;;3.00;2.00;;;;;;;;5131164;27;9119;-72
2023/10/03 12:01:35;;;;;;;;;10.33;6.33;;;;;;;;5136740;27;9417;-70
2023/10/03 12:04:00;;;;;;;;;3.33;2.67;;;;;;;;5126368;27;8776;-72
2023/10/03 12:06:26;;;;;;;;;2.00;2.00;;;;;;;;5131250;27;9735;-73
2023/10/03 12:08:51;;;;;;;;;1.67;1.00;;;;;;;;5134360;27;8817;-73
2023/10/03 12:11:16;;;;;;;;;4.50;2.00;;;;;;;;5130795;27;9376;-71
2023/10/03 12:13:41;;;;;;;;;3.00;3.00;;;;;;;;5129646;27;8800;-73
2023/10/03 12:16:07;;;;;;;;;3.50;2.75;;;;;;;;5143930;27;8777;-72
2023/10/03 12:18:32;;;;;;;;;4.75;3.75;;;;;;;;5127314;27;8787;-71
2023/10/03 12:20:57;;;;;;;;;3.75;3.75;;;;;;;;5103569;27;10286;-74
2023/10/03 12:23:22;;;;;;;;;4.50;3.00;;;;;;;;5129102;27;8807;-74
2023/10/03 12:25:48;;;;;;;;;2.25;2.25;;;;;;;;5132228;27;8771;-74
2023/10/03 12:28:16;;;;;;;;;4.33;3.00;;;;;;;;5133010;27;8827;-74
2023/10/03 12:30:41;;;;;;;;;2.67;2.33;;;;;;;;5137180;27;8754;-74
2023/10/03 12:33:11;;;;;;;;;12.00;6.00;;;;;;;;5143809;27;9504;-74
2023/10/03 12:35:36;;;;;;;;;3.50;3.50;;;;;;;;5139645;27;8782;-74
2023/10/03 12:38:01;;;;;;;;;6.75;5.75;;;;;;;;5143325;27;9553;-73
2023/10/03 12:40:27;;;;;;;;;3.00;1.75;;;;;;;;5137719;27;8820;-74
2023/10/03 12:42:53;;;;;;;;;3.50;3.00;;;;;;;;5133117;27;8887;-73
2023/10/03 12:45:21;;;;;;;;;1.75;1.00;;;;;;;;5129736;27;8807;-74
2023/10/03 12:47:47;;;;;;;;;1.75;1.75;;;;;;;;5121683;27;9740;-74
2023/10/03 12:50:16;;;;;;;;;2.00;2.00;;;;;;;;5121419;28;10324;-74
2023/10/03 12:52:42;;;;;;;;;2.00;2.00;;;;;;;;5122545;27;9504;-74
2023/10/03 12:55:09;;;;;;;;;2.67;2.00;;;;;;;;5122160;27;9627;-74
2023/10/03 12:57:34;;;;;;;;;0.67;0.00;;;;;;;;5122431;27;9462;-73
2023/10/03 13:00:00;;;;;;;;;1.00;1.00;;;;;;;;5124515;27;9598;-74
2023/10/03 13:02:25;;;;;;;;;1.00;0.00;;;;;;;;5122297;27;8799;-74
2023/10/03 13:04:50;;;;;;;;;2.67;1.33;;;;;;;;5122365;27;8815;-74
2023/10/03 13:07:16;;;;;;;;;2.00;1.00;;;;;;;;5121908;27;8791;-74
2023/10/03 13:09:44;;;;;;;;;2.00;0.00;;;;;;;;5120630;28;10354;-74
2023/10/03 13:12:09;;;;;;;;;4.00;2.00;;;;;;;;5122513;27;9196;-73
2023/10/03 13:14:34;;;;;;;;;1.67;1.67;;;;;;;;5124757;27;9169;-74
2023/10/03 13:17:01;;;;;;;;;1.67;1.00;;;;;;;;5122875;27;8775;-74
2023/10/03 13:19:30;;;;;;;;;1.00;1.00;;;;;;;;5134901;27;10665;-74
2023/10/03 13:21:56;;;;;;;;;2.00;0.67;;;;;;;;5129564;27;9139;-74
2023/10/03 13:24:22;;;;;;;;;3.00;1.00;;;;;;;;5121299;27;9114;-74
2023/10/03 13:26:47;;;;;;;;;0.67;0.67;;;;;;;;5121878;27;8909;-73
2023/10/03 13:29:13;;;;;;;;;0.67;0.33;;;;;;;;5122429;27;9254;-73
2023/10/03 13:31:38;;;;;;;;;2.67;1.00;;;;;;;;5122061;27;8802;-73
2023/10/03 13:34:03;;;;;;;;;0.00;0.00;;;;;;;;5119093;27;8793;-73
2023/10/03 13:36:30;;;;;;;;;0.33;0.33;;;;;;;;5122090;27;8795;-74
2023/10/03 13:38:55;;;;;;;;;1.33;0.33;;;;;;;;5118943;28;8787;-74
2023/10/03 13:41:20;;;;;;;;;1.33;0.33;;;;;;;;5125163;27;9129;-73
2023/10/03 13:43:45;;;;;;;;;2.67;1.67;;;;;;;;5125508;27;8795;-73
2023/10/03 13:46:11;;;;;;;;;2.00;2.00;;;;;;;;5139729;27;8793;-73
2023/10/03 13:48:37;;;;;;;;;2.00;1.00;;;;;;;;5143333;27;8724;-74
2023/10/03 13:51:03;;;;;;;;;2.33;1.33;;;;;;;;5129292;27;8979;-73
2023/10/03 13:53:29;;;;;;;;;0.67;0.67;;;;;;;;5131917;27;8903;-73
2023/10/03 13:55:54;;;;;;;;;2.00;0.00;;;;;;;;5124681;27;9219;-74
2023/10/03 13:58:19;;;;;;;;;1.33;1.33;;;;;;;;5138361;27;8841;-74
2023/10/03 14:00:45;;;;;;;;;4.00;1.00;;;;;;;;5146171;27;8821;-77
2023/10/03 14:03:17;;;;;;;;;1.00;1.00;;;;;;;;5126597;27;8779;-77
2023/10/03 14:05:43;;;;;;;;;2.33;1.67;;;;;;;;5127696;27;8763;-75
2023/10/03 14:08:08;;;;;;;;;3.67;1.33;;;;;;;;5122926;27;10121;-75
2023/10/03 14:10:40;;;;;;;;;2.00;2.00;;;;;;;;5125547;27;8809;-75
2023/10/03 14:13:06;;;;;;;;;0.00;0.00;;;;;;;;5124974;27;8907;-75
2023/10/03 14:15:33;;;;;;;;;1.00;1.00;;;;;;;;5126448;27;8870;-75
2023/10/03 14:17:58;;;;;;;;;1.00;1.00;;;;;;;;5123887;27;8780;-75
2023/10/03 14:20:24;;;;;;;;;0.67;0.67;;;;;;;;5124662;27;8904;-75
2023/10/03 14:22:51;;;;;;;;;1.67;0.67;;;;;;;;5125930;27;8821;-75
2023/10/03 14:25:17;;;;;;;;;1.00;1.00;;;;;;;;5126469;27;8900;-75
2023/10/03 14:27:44;;;;;;;;;0.33;0.33;;;;;;;;5124746;27;9146;-75
2023/10/03 14:30:09;;;;;;;;;0.25;0.25;;;;;;;;5124960;27;8767;-75
2023/10/03 14:32:36;;;;;;;;;2.33;0.67;;;;;;;;5124949;27;8811;-75
2023/10/03 14:35:02;;;;;;;;;1.00;0.75;;;;;;;;5121518;27;8761;-75
2023/10/03 14:37:27;;;;;;;;;0.33;0.33;;;;;;;;5121044;27;8807;-75
2023/10/03 14:39:54;;;;;;;;;1.00;1.00;;;;;;;;5121129;27;8876;-75
2023/10/03 14:42:20;;;;;;;;;1.00;0.75;;;;;;;;5133323;27;8818;-75
2023/10/03 14:44:45;;;;;;;;;0.33;0.33;;;;;;;;5135025;27;8815;-76
2023/10/03 14:47:10;;;;;;;;;2.33;0.00;;;;;;;;5127646;27;10101;-75
2023/10/03 14:49:35;;;;;;;;;0.00;0.00;;;;;;;;5124252;27;9110;-76
2023/10/03 14:52:01;;;;;;;;;1.67;1.00;;;;;;;;5127913;27;8795;-79
2023/10/03 14:54:26;;;;;;;;;1.00;1.00;;;;;;;;5127978;27;8822;-75
2023/10/03 14:56:51;;;;;;;;;0.67;0.33;;;;;;;;5126580;27;10226;-77